sensor_id;sensor_type;location;lat;lon;timestamp;P1;durP1;ratioP1;P2;durP2;ratioP2
65597;SDS011;52267;51.984;20.956;2023-09-08T00:01:30;14.50;;;10.30;;
65597;SDS011;52267;51.984;20.956;2023-09-08T00:03:57;13.90;;;10.30;;
65597;SDS011;52267;51.984;20.956;2023-09-08T00:06:24;16.40;;;10.00;;
65597;SDS011;52267;51.984;20.956;2023-09-08T00:08:51;11.60;;;10.00;;
65597;SDS011;52267;51.984;20.956;2023-09-08T00:11:18;11.80;;;9.60;;
65597;SDS011;52267;51.984;20.956;2023-09-08T00:13:45;12.80;;;9.90;;
65597;SDS011;52267;51.984;20.956;2023-09-08T00:16:12;13.40;;;10.00;;
65597;SDS011;52267;51.984;20.956;2023-09-08T00:18:39;13.00;;;9.40;;
65597;SDS011;52267;51.984;20.956;2023-09-08T00:21:06;14.50;;;9.60;;
65597;SDS011;52267;51.984;20.956;2023-09-08T00:23:33;12.60;;;9.80;;
65597;SDS011;52267;51.984;20.956;2023-09-08T00:26:00;11.90;;;9.10;;
65597;SDS011;52267;51.984;20.956;2023-09-08T00:28:28;11.00;;;9.10;;
65597;SDS011;52267;51.984;20.956;2023-09-08T00:30:55;10.50;;;9.30;;
65597;SDS011;52267;51.984;20.956;2023-09-08T00:33:22;12.60;;;9.90;;
65597;SDS011;52267;51.984;20.956;2023-09-08T00:35:49;12.60;;;9.10;;
65597;SDS011;52267;51.984;20.956;2023-09-08T00:38:16;13.10;;;9.90;;
65597;SDS011;52267;51.984;20.956;2023-09-08T00:40:43;12.20;;;9.30;;
65597;SDS011;52267;51.984;20.956;2023-09-08T00:43:10;12.30;;;9.50;;
65597;SDS011;52267;51.984;20.956;2023-09-08T00:45:41;12.30;;;9.40;;
65597;SDS011;52267;51.984;20.956;2023-09-08T00:48:09;10.30;;;8.60;;
65597;SDS011;52267;51.984;20.956;2023-09-08T00:50:36;13.00;;;9.10;;
65597;SDS011;52267;51.984;20.956;2023-09-08T00:53:05;9.90;;;8.90;;
65597;SDS011;52267;51.984;20.956;2023-09-08T00:55:33;13.20;;;9.50;;
65597;SDS011;52267;51.984;20.956;2023-09-08T00:58:01;10.40;;;8.60;;
65597;SDS011;52267;51.984;20.956;2023-09-08T01:00:29;11.10;;;9.80;;
65597;SDS011;52267;51.984;20.956;2023-09-08T01:02:56;12.50;;;9.70;;
65597;SDS011;52267;51.984;20.956;2023-09-08T01:05:23;12.10;;;9.40;;
65597;SDS011;52267;51.984;20.956;2023-09-08T01:07:51;11.50;;;9.10;;
65597;SDS011;52267;51.984;20.956;2023-09-08T01:10:19;13.90;;;9.40;;
65597;SDS011;52267;51.984;20.956;2023-09-08T01:12:46;12.40;;;9.20;;
65597;SDS011;52267;51.984;20.956;2023-09-08T01:15:13;11.10;;;9.70;;
65597;SDS011;52267;51.984;20.956;2023-09-08T01:17:40;10.80;;;9.10;;
65597;SDS011;52267;51.984;20.956;2023-09-08T01:20:35;10.30;;;8.90;;
65597;SDS011;52267;51.984;20.956;2023-09-08T01:24:03;12.30;;;9.10;;
65597;SDS011;52267;51.984;20.956;2023-09-08T01:26:41;12.80;;;9.30;;
65597;SDS011;52267;51.984;20.956;2023-09-08T01:29:10;11.60;;;9.60;;
65597;SDS011;52267;51.984;20.956;2023-09-08T01:31:38;14.10;;;9.40;;
65597;SDS011;52267;51.984;20.956;2023-09-08T01:34:05;12.10;;;9.00;;
65597;SDS011;52267;51.984;20.956;2023-09-08T01:36:36;11.40;;;9.10;;
65597;SDS011;52267;51.984;20.956;2023-09-08T01:39:04;12.10;;;9.50;;
65597;SDS011;52267;51.984;20.956;2023-09-08T01:41:31;12.80;;;9.50;;
65597;SDS011;52267;51.984;20.956;2023-09-08T01:43:59;13.50;;;10.30;;
65597;SDS011;52267;51.984;20.956;2023-09-08T01:46:27;12.20;;;9.20;;
65597;SDS011;52267;51.984;20.956;2023-09-08T01:48:54;11.70;;;10.40;;
65597;SDS011;52267;51.984;20.956;2023-09-08T01:51:21;12.80;;;9.90;;
65597;SDS011;52267;51.984;20.956;2023-09-08T01:53:48;11.40;;;9.20;;
65597;SDS011;52267;51.984;20.956;2023-09-08T01:56:15;13.60;;;10.50;;
65597;SDS011;52267;51.984;20.956;2023-09-08T01:58:42;11.60;;;9.30;;
65597;SDS011;52267;51.984;20.956;2023-09-08T02:01:09;12.70;;;9.10;;
65597;SDS011;52267;51.984;20.956;2023-09-08T02:03:36;13.30;;;9.10;;
65597;SDS011;52267;51.984;20.956;2023-09-08T02:06:03;12.00;;;9.60;;
65597;SDS011;52267;51.984;20.956;2023-09-08T02:08:30;11.50;;;9.80;;
65597;SDS011;52267;51.984;20.956;2023-09-08T02:10:57;13.50;;;9.90;;
65597;SDS011;52267;51.984;20.956;2023-09-08T02:13:24;14.30;;;9.70;;
65597;SDS011;52267;51.984;20.956;2023-09-08T02:15:51;13.10;;;9.00;;
65597;SDS011;52267;51.984;20.956;2023-09-08T02:18:18;11.30;;;9.10;;
65597;SDS011;52267;51.984;20.956;2023-09-08T02:20:45;13.90;;;9.80;;
65597;SDS011;52267;51.984;20.956;2023-09-08T02:23:12;12.50;;;9.90;;
65597;SDS011;52267;51.984;20.956;2023-09-08T02:25:39;11.10;;;8.90;;
65597;SDS011;52267;51.984;20.956;2023-09-08T02:28:06;11.90;;;9.10;;
65597;SDS011;52267;51.984;20.956;2023-09-08T02:30:33;12.80;;;9.90;;
65597;SDS011;52267;51.984;20.956;2023-09-08T02:33:00;12.30;;;9.60;;
65597;SDS011;52267;51.984;20.956;2023-09-08T02:35:29;13.50;;;9.30;;
65597;SDS011;52267;51.984;20.956;2023-09-08T02:37:56;11.60;;;8.80;;
65597;SDS011;52267;51.984;20.956;2023-09-08T02:40:23;11.20;;;9.00;;
65597;SDS011;52267;51.984;20.956;2023-09-08T02:42:50;10.80;;;9.00;;
65597;SDS011;52267;51.984;20.956;2023-09-08T02:45:17;13.60;;;9.70;;
65597;SDS011;52267;51.984;20.956;2023-09-08T02:47:44;11.40;;;8.70;;
65597;SDS011;52267;51.984;20.956;2023-09-08T02:50:11;12.60;;;9.40;;
65597;SDS011;52267;51.984;20.956;2023-09-08T02:52:38;13.00;;;9.30;;
65597;SDS011;52267;51.984;20.956;2023-09-08T02:55:05;10.90;;;9.10;;
65597;SDS011;52267;51.984;20.956;2023-09-08T02:57:33;11.90;;;9.20;;
65597;SDS011;52267;51.984;20.956;2023-09-08T03:00:00;10.30;;;8.50;;
65597;SDS011;52267;51.984;20.956;2023-09-08T03:02:27;11.00;;;8.60;;
65597;SDS011;52267;51.984;20.956;2023-09-08T03:04:54;10.70;;;8.10;;
65597;SDS011;52267;51.984;20.956;2023-09-08T03:07:21;12.50;;;8.70;;
65597;SDS011;52267;51.984;20.956;2023-09-08T03:09:48;12.30;;;9.20;;
65597;SDS011;52267;51.984;20.956;2023-09-08T03:12:15;11.30;;;8.30;;
65597;SDS011;52267;51.984;20.956;2023-09-08T03:14:42;12.20;;;9.70;;
65597;SDS011;52267;51.984;20.956;2023-09-08T03:17:11;12.90;;;8.40;;
65597;SDS011;52267;51.984;20.956;2023-09-08T03:19:39;12.70;;;9.60;;
65597;SDS011;52267;51.984;20.956;2023-09-08T03:22:06;11.70;;;9.00;;
65597;SDS011;52267;51.984;20.956;2023-09-08T03:24:33;11.00;;;8.90;;
65597;SDS011;52267;51.984;20.956;2023-09-08T03:27:00;11.40;;;8.50;;
65597;SDS011;52267;51.984;20.956;2023-09-08T03:29:27;12.50;;;8.90;;
65597;SDS011;52267;51.984;20.956;2023-09-08T03:31:54;11.50;;;8.70;;
65597;SDS011;52267;51.984;20.956;2023-09-08T03:34:21;12.30;;;8.50;;
65597;SDS011;52267;51.984;20.956;2023-09-08T03:36:49;11.60;;;8.50;;
65597;SDS011;52267;51.984;20.956;2023-09-08T03:39:16;11.50;;;8.20;;
65597;SDS011;52267;51.984;20.956;2023-09-08T03:41:46;9.90;;;8.60;;
65597;SDS011;52267;51.984;20.956;2023-09-08T03:44:13;11.30;;;9.10;;
65597;SDS011;52267;51.984;20.956;2023-09-08T03:46:40;12.00;;;10.00;;
65597;SDS011;52267;51.984;20.956;2023-09-08T03:49:07;13.00;;;9.20;;
65597;SDS011;52267;51.984;20.956;2023-09-08T03:51:34;13.00;;;9.60;;
65597;SDS011;52267;51.984;20.956;2023-09-08T03:54:01;11.90;;;9.20;;
65597;SDS011;52267;51.984;20.956;2023-09-08T03:56:30;13.60;;;10.20;;
65597;SDS011;52267;51.984;20.956;2023-09-08T03:58:57;13.10;;;9.60;;
65597;SDS011;52267;51.984;20.956;2023-09-08T04:01:24;13.10;;;10.00;;
65597;SDS011;52267;51.984;20.956;2023-09-08T04:03:51;13.20;;;9.20;;
65597;SDS011;52267;51.984;20.956;2023-09-08T04:06:18;11.50;;;8.80;;
65597;SDS011;52267;51.984;20.956;2023-09-08T04:08:45;12.80;;;8.50;;
65597;SDS011;52267;51.984;20.956;2023-09-08T04:11:12;12.70;;;8.60;;
65597;SDS011;52267;51.984;20.956;2023-09-08T04:13:39;12.10;;;8.80;;
65597;SDS011;52267;51.984;20.956;2023-09-08T04:16:06;11.20;;;9.00;;
65597;SDS011;52267;51.984;20.956;2023-09-08T04:18:33;11.60;;;9.30;;
65597;SDS011;52267;51.984;20.956;2023-09-08T04:21:00;12.80;;;9.90;;
65597;SDS011;52267;51.984;20.956;2023-09-08T04:23:27;12.20;;;8.50;;
65597;SDS011;52267;51.984;20.956;2023-09-08T04:25:54;11.20;;;8.90;;
65597;SDS011;52267;51.984;20.956;2023-09-08T04:28:21;12.10;;;9.70;;
65597;SDS011;52267;51.984;20.956;2023-09-08T04:30:48;11.90;;;9.40;;
65597;SDS011;52267;51.984;20.956;2023-09-08T04:33:15;12.80;;;9.30;;
65597;SDS011;52267;51.984;20.956;2023-09-08T04:35:43;10.60;;;8.50;;
65597;SDS011;52267;51.984;20.956;2023-09-08T04:38:10;10.90;;;8.10;;
65597;SDS011;52267;51.984;20.956;2023-09-08T04:40:41;11.40;;;8.80;;
65597;SDS011;52267;51.984;20.956;2023-09-08T04:43:11;12.10;;;8.70;;
65597;SDS011;52267;51.984;20.956;2023-09-08T04:45:38;11.50;;;8.90;;
65597;SDS011;52267;51.984;20.956;2023-09-08T04:48:05;12.40;;;9.20;;
65597;SDS011;52267;51.984;20.956;2023-09-08T04:50:32;12.60;;;9.30;;
65597;SDS011;52267;51.984;20.956;2023-09-08T04:53:00;13.10;;;8.70;;
65597;SDS011;52267;51.984;20.956;2023-09-08T04:55:27;15.30;;;9.60;;
65597;SDS011;52267;51.984;20.956;2023-09-08T04:57:54;13.00;;;9.70;;
65597;SDS011;52267;51.984;20.956;2023-09-08T05:00:21;13.90;;;10.20;;
65597;SDS011;52267;51.984;20.956;2023-09-08T05:02:48;15.00;;;10.60;;
65597;SDS011;52267;51.984;20.956;2023-09-08T05:05:15;15.10;;;10.10;;
65597;SDS011;52267;51.984;20.956;2023-09-08T05:07:45;12.30;;;9.70;;
65597;SDS011;52267;51.984;20.956;2023-09-08T05:10:13;12.70;;;10.10;;
65597;SDS011;52267;51.984;20.956;2023-09-08T05:12:40;14.50;;;11.30;;
65597;SDS011;52267;51.984;20.956;2023-09-08T05:15:07;13.40;;;10.40;;
65597;SDS011;52267;51.984;20.956;2023-09-08T05:17:41;13.30;;;10.80;;
65597;SDS011;52267;51.984;20.956;2023-09-08T05:20:09;15.10;;;10.90;;
65597;SDS011;52267;51.984;20.956;2023-09-08T05:22:36;13.40;;;11.20;;
65597;SDS011;52267;51.984;20.956;2023-09-08T05:25:04;18.40;;;11.80;;
65597;SDS011;52267;51.984;20.956;2023-09-08T05:27:31;16.30;;;11.00;;
65597;SDS011;52267;51.984;20.956;2023-09-08T05:29:58;17.30;;;12.80;;
65597;SDS011;52267;51.984;20.956;2023-09-08T05:32:25;16.80;;;11.90;;
65597;SDS011;52267;51.984;20.956;2023-09-08T05:34:52;17.40;;;13.00;;
65597;SDS011;52267;51.984;20.956;2023-09-08T05:37:19;17.00;;;12.40;;
65597;SDS011;52267;51.984;20.956;2023-09-08T05:39:46;18.10;;;11.70;;
65597;SDS011;52267;51.984;20.956;2023-09-08T05:42:14;18.20;;;12.20;;
65597;SDS011;52267;51.984;20.956;2023-09-08T05:44:41;16.20;;;12.20;;
65597;SDS011;52267;51.984;20.956;2023-09-08T05:47:08;18.40;;;11.60;;
65597;SDS011;52267;51.984;20.956;2023-09-08T05:49:35;16.20;;;12.50;;
65597;SDS011;52267;51.984;20.956;2023-09-08T05:52:02;17.70;;;13.30;;
65597;SDS011;52267;51.984;20.956;2023-09-08T05:54:29;15.40;;;11.40;;
65597;SDS011;52267;51.984;20.956;2023-09-08T05:56:57;17.50;;;11.70;;
65597;SDS011;52267;51.984;20.956;2023-09-08T05:59:24;16.80;;;11.90;;
65597;SDS011;52267;51.984;20.956;2023-09-08T06:01:51;15.00;;;12.40;;
65597;SDS011;52267;51.984;20.956;2023-09-08T06:04:18;16.10;;;11.90;;
65597;SDS011;52267;51.984;20.956;2023-09-08T06:06:45;17.30;;;12.40;;
65597;SDS011;52267;51.984;20.956;2023-09-08T06:09:12;14.80;;;11.00;;
65597;SDS011;52267;51.984;20.956;2023-09-08T06:11:41;15.70;;;11.30;;
65597;SDS011;52267;51.984;20.956;2023-09-08T06:14:08;14.50;;;10.50;;
65597;SDS011;52267;51.984;20.956;2023-09-08T06:16:35;15.00;;;11.50;;
65597;SDS011;52267;51.984;20.956;2023-09-08T06:19:04;15.10;;;10.40;;
65597;SDS011;52267;51.984;20.956;2023-09-08T06:21:31;14.80;;;9.80;;
65597;SDS011;52267;51.984;20.956;2023-09-08T06:23:58;16.10;;;11.40;;
65597;SDS011;52267;51.984;20.956;2023-09-08T06:26:25;20.80;;;11.20;;
65597;SDS011;52267;51.984;20.956;2023-09-08T06:28:52;15.50;;;10.10;;
65597;SDS011;52267;51.984;20.956;2023-09-08T06:31:19;14.60;;;10.50;;
65597;SDS011;52267;51.984;20.956;2023-09-08T06:33:46;14.70;;;10.20;;
65597;SDS011;52267;51.984;20.956;2023-09-08T06:36:14;16.60;;;9.80;;
65597;SDS011;52267;51.984;20.956;2023-09-08T06:38:41;26.20;;;12.00;;
65597;SDS011;52267;51.984;20.956;2023-09-08T06:41:09;19.60;;;11.00;;
65597;SDS011;52267;51.984;20.956;2023-09-08T06:43:38;14.40;;;10.20;;
65597;SDS011;52267;51.984;20.956;2023-09-08T06:46:05;14.40;;;9.00;;
65597;SDS011;52267;51.984;20.956;2023-09-08T06:48:32;12.80;;;10.30;;
65597;SDS011;52267;51.984;20.956;2023-09-08T06:50:59;18.70;;;11.90;;
65597;SDS011;52267;51.984;20.956;2023-09-08T06:53:26;16.00;;;10.50;;
65597;SDS011;52267;51.984;20.956;2023-09-08T06:55:53;15.70;;;8.80;;
65597;SDS011;52267;51.984;20.956;2023-09-08T06:58:20;12.80;;;8.30;;
65597;SDS011;52267;51.984;20.956;2023-09-08T07:00:47;11.10;;;8.50;;
65597;SDS011;52267;51.984;20.956;2023-09-08T07:03:16;12.90;;;9.00;;
65597;SDS011;52267;51.984;20.956;2023-09-08T07:05:43;10.20;;;7.80;;
65597;SDS011;52267;51.984;20.956;2023-09-08T07:08:10;13.40;;;8.50;;
65597;SDS011;52267;51.984;20.956;2023-09-08T07:10:37;11.60;;;8.50;;
65597;SDS011;52267;51.984;20.956;2023-09-08T07:13:04;21.70;;;10.60;;
65597;SDS011;52267;51.984;20.956;2023-09-08T07:15:31;15.60;;;7.50;;
65597;SDS011;52267;51.984;20.956;2023-09-08T07:17:59;10.20;;;7.30;;
65597;SDS011;52267;51.984;20.956;2023-09-08T07:20:26;11.40;;;7.50;;
65597;SDS011;52267;51.984;20.956;2023-09-08T07:22:53;11.80;;;7.50;;
65597;SDS011;52267;51.984;20.956;2023-09-08T07:25:21;14.20;;;7.90;;
65597;SDS011;52267;51.984;20.956;2023-09-08T07:27:48;57.90;;;13.70;;
65597;SDS011;52267;51.984;20.956;2023-09-08T07:30:17;11.80;;;7.70;;
65597;SDS011;52267;51.984;20.956;2023-09-08T07:32:44;13.20;;;8.00;;
65597;SDS011;52267;51.984;20.956;2023-09-08T07:35:11;11.70;;;7.30;;
65597;SDS011;52267;51.984;20.956;2023-09-08T07:37:43;11.50;;;7.70;;
65597;SDS011;52267;51.984;20.956;2023-09-08T07:40:10;11.10;;;7.50;;
65597;SDS011;52267;51.984;20.956;2023-09-08T07:42:38;9.40;;;7.20;;
65597;SDS011;52267;51.984;20.956;2023-09-08T07:45:05;11.70;;;7.10;;
65597;SDS011;52267;51.984;20.956;2023-09-08T07:47:33;10.80;;;7.40;;
65597;SDS011;52267;51.984;20.956;2023-09-08T07:50:26;9.70;;;8.10;;
65597;SDS011;52267;51.984;20.956;2023-09-08T07:52:56;10.70;;;7.20;;
65597;SDS011;52267;51.984;20.956;2023-09-08T07:55:23;10.30;;;7.20;;
65597;SDS011;52267;51.984;20.956;2023-09-08T07:57:54;9.20;;;6.30;;
65597;SDS011;52267;51.984;20.956;2023-09-08T08:00:22;9.80;;;7.90;;
65597;SDS011;52267;51.984;20.956;2023-09-08T08:02:51;9.90;;;7.20;;
65597;SDS011;52267;51.984;20.956;2023-09-08T08:05:20;8.50;;;6.70;;
65597;SDS011;52267;51.984;20.956;2023-09-08T08:08:03;9.90;;;7.60;;
65597;SDS011;52267;51.984;20.956;2023-09-08T08:10:41;9.90;;;7.00;;
65597;SDS011;52267;51.984;20.956;2023-09-08T08:13:11;10.50;;;7.20;;
65597;SDS011;52267;51.984;20.956;2023-09-08T08:15:39;12.60;;;7.50;;
65597;SDS011;52267;51.984;20.956;2023-09-08T08:18:09;10.00;;;7.60;;
65597;SDS011;52267;51.984;20.956;2023-09-08T08:20:39;10.00;;;7.20;;
65597;SDS011;52267;51.984;20.956;2023-09-08T08:23:07;11.20;;;7.90;;
65597;SDS011;52267;51.984;20.956;2023-09-08T08:25:34;9.40;;;7.40;;
65597;SDS011;52267;51.984;20.956;2023-09-08T08:28:01;8.20;;;6.00;;
65597;SDS011;52267;51.984;20.956;2023-09-08T08:30:29;10.20;;;6.80;;
65597;SDS011;52267;51.984;20.956;2023-09-08T08:32:56;8.60;;;5.80;;
65597;SDS011;52267;51.984;20.956;2023-09-08T08:35:23;10.00;;;7.00;;
65597;SDS011;52267;51.984;20.956;2023-09-08T08:37:50;7.90;;;6.40;;
65597;SDS011;52267;51.984;20.956;2023-09-08T08:40:18;7.00;;;6.00;;
65597;SDS011;52267;51.984;20.956;2023-09-08T08:42:45;9.40;;;6.20;;
65597;SDS011;52267;51.984;20.956;2023-09-08T08:46:17;10.10;;;6.20;;
65597;SDS011;52267;51.984;20.956;2023-09-08T08:48:48;8.20;;;6.80;;
65597;SDS011;52267;51.984;20.956;2023-09-08T08:51:17;12.50;;;7.00;;
65597;SDS011;52267;51.984;20.956;2023-09-08T08:53:44;9.20;;;7.40;;
65597;SDS011;52267;51.984;20.956;2023-09-08T08:56:12;9.00;;;6.70;;
65597;SDS011;52267;51.984;20.956;2023-09-08T08:58:39;10.60;;;6.80;;
65597;SDS011;52267;51.984;20.956;2023-09-08T09:01:07;8.80;;;7.00;;
65597;SDS011;52267;51.984;20.956;2023-09-08T09:03:34;9.50;;;6.70;;
65597;SDS011;52267;51.984;20.956;2023-09-08T09:06:04;7.00;;;5.80;;
65597;SDS011;52267;51.984;20.956;2023-09-08T09:08:32;6.50;;;5.20;;
65597;SDS011;52267;51.984;20.956;2023-09-08T09:10:59;7.70;;;5.50;;
65597;SDS011;52267;51.984;20.956;2023-09-08T09:13:26;6.60;;;5.60;;
65597;SDS011;52267;51.984;20.956;2023-09-08T09:15:58;10.50;;;6.20;;
65597;SDS011;52267;51.984;20.956;2023-09-08T09:18:26;8.30;;;6.80;;
65597;SDS011;52267;51.984;20.956;2023-09-08T09:20:59;8.60;;;6.10;;
65597;SDS011;52267;51.984;20.956;2023-09-08T09:26:00;11.80;;;5.80;;
65597;SDS011;52267;51.984;20.956;2023-09-08T09:28:30;7.40;;;5.80;;
65597;SDS011;52267;51.984;20.956;2023-09-08T09:30:59;7.30;;;5.80;;
65597;SDS011;52267;51.984;20.956;2023-09-08T09:33:27;7.40;;;5.40;;
65597;SDS011;52267;51.984;20.956;2023-09-08T09:35:55;7.50;;;5.70;;
65597;SDS011;52267;51.984;20.956;2023-09-08T09:38:26;7.00;;;4.90;;
65597;SDS011;52267;51.984;20.956;2023-09-08T09:40:54;6.60;;;4.80;;
65597;SDS011;52267;51.984;20.956;2023-09-08T09:43:22;7.30;;;5.40;;
65597;SDS011;52267;51.984;20.956;2023-09-08T09:45:49;8.70;;;5.20;;
65597;SDS011;52267;51.984;20.956;2023-09-08T09:48:19;6.20;;;4.60;;
65597;SDS011;52267;51.984;20.956;2023-09-08T09:50:47;6.70;;;5.10;;
65597;SDS011;52267;51.984;20.956;2023-09-08T09:53:16;6.60;;;4.70;;
65597;SDS011;52267;51.984;20.956;2023-09-08T09:55:45;6.90;;;4.20;;
65597;SDS011;52267;51.984;20.956;2023-09-08T09:58:12;6.30;;;4.00;;
65597;SDS011;52267;51.984;20.956;2023-09-08T10:00:41;5.60;;;3.90;;
65597;SDS011;52267;51.984;20.956;2023-09-08T10:03:13;6.60;;;4.40;;
65597;SDS011;52267;51.984;20.956;2023-09-08T10:05:41;5.20;;;4.40;;
65597;SDS011;52267;51.984;20.956;2023-09-08T10:08:08;5.70;;;4.30;;
65597;SDS011;52267;51.984;20.956;2023-09-08T10:10:36;5.00;;;4.30;;
65597;SDS011;52267;51.984;20.956;2023-09-08T10:13:06;7.80;;;4.40;;
65597;SDS011;52267;51.984;20.956;2023-09-08T10:15:33;5.70;;;4.50;;
65597;SDS011;52267;51.984;20.956;2023-09-08T10:18:04;5.70;;;4.50;;
65597;SDS011;52267;51.984;20.956;2023-09-08T10:20:33;7.80;;;4.70;;
65597;SDS011;52267;51.984;20.956;2023-09-08T10:23:07;6.80;;;4.60;;
65597;SDS011;52267;51.984;20.956;2023-09-08T10:25:44;5.50;;;4.10;;
65597;SDS011;52267;51.984;20.956;2023-09-08T10:28:16;6.90;;;4.70;;
65597;SDS011;52267;51.984;20.956;2023-09-08T10:30:44;7.10;;;4.60;;
65597;SDS011;52267;51.984;20.956;2023-09-08T10:33:12;6.30;;;4.90;;
65597;SDS011;52267;51.984;20.956;2023-09-08T10:35:40;5.80;;;4.60;;
65597;SDS011;52267;51.984;20.956;2023-09-08T10:38:32;5.60;;;4.40;;
65597;SDS011;52267;51.984;20.956;2023-09-08T10:41:30;6.20;;;4.20;;
65597;SDS011;52267;51.984;20.956;2023-09-08T10:44:02;6.10;;;4.60;;
65597;SDS011;52267;51.984;20.956;2023-09-08T10:46:32;6.00;;;4.10;;
65597;SDS011;52267;51.984;20.956;2023-09-08T10:49:04;7.80;;;4.50;;
65597;SDS011;52267;51.984;20.956;2023-09-08T10:51:34;5.40;;;4.50;;
65597;SDS011;52267;51.984;20.956;2023-09-08T10:54:01;5.80;;;4.80;;
65597;SDS011;52267;51.984;20.956;2023-09-08T10:56:55;7.00;;;4.60;;
65597;SDS011;52267;51.984;20.956;2023-09-08T10:59:29;5.10;;;4.30;;
65597;SDS011;52267;51.984;20.956;2023-09-08T11:02:04;5.80;;;4.80;;
65597;SDS011;52267;51.984;20.956;2023-09-08T11:04:33;6.40;;;4.70;;
65597;SDS011;52267;51.984;20.956;2023-09-08T11:09:35;7.60;;;6.00;;
65597;SDS011;52267;51.984;20.956;2023-09-08T11:12:03;6.10;;;4.40;;
65597;SDS011;52267;51.984;20.956;2023-09-08T11:14:32;8.50;;;5.70;;
65597;SDS011;52267;51.984;20.956;2023-09-08T11:17:02;8.30;;;4.90;;
65597;SDS011;52267;51.984;20.956;2023-09-08T11:19:50;6.10;;;5.00;;
65597;SDS011;52267;51.984;20.956;2023-09-08T11:22:18;5.80;;;4.60;;
65597;SDS011;52267;51.984;20.956;2023-09-08T11:24:45;6.80;;;4.50;;
65597;SDS011;52267;51.984;20.956;2023-09-08T11:27:12;6.20;;;4.90;;
65597;SDS011;52267;51.984;20.956;2023-09-08T11:29:39;6.20;;;4.60;;
65597;SDS011;52267;51.984;20.956;2023-09-08T11:32:07;7.50;;;5.10;;
65597;SDS011;52267;51.984;20.956;2023-09-08T11:34:35;7.50;;;4.40;;
65597;SDS011;52267;51.984;20.956;2023-09-08T11:37:13;6.30;;;4.30;;
65597;SDS011;52267;51.984;20.956;2023-09-08T11:39:43;5.60;;;4.70;;
65597;SDS011;52267;51.984;20.956;2023-09-08T11:42:15;6.40;;;4.40;;
65597;SDS011;52267;51.984;20.956;2023-09-08T11:44:42;7.50;;;4.60;;
65597;SDS011;52267;51.984;20.956;2023-09-08T11:47:10;6.80;;;4.80;;
65597;SDS011;52267;51.984;20.956;2023-09-08T11:49:41;5.50;;;4.60;;
65597;SDS011;52267;51.984;20.956;2023-09-08T11:52:11;7.60;;;5.00;;
65597;SDS011;52267;51.984;20.956;2023-09-08T11:54:38;8.50;;;4.80;;
65597;SDS011;52267;51.984;20.956;2023-09-08T11:57:05;6.70;;;5.00;;
65597;SDS011;52267;51.984;20.956;2023-09-08T11:59:35;5.90;;;5.30;;
65597;SDS011;52267;51.984;20.956;2023-09-08T12:02:02;6.00;;;4.90;;
65597;SDS011;52267;51.984;20.956;2023-09-08T12:04:30;7.30;;;4.90;;
65597;SDS011;52267;51.984;20.956;2023-09-08T12:06:57;5.70;;;5.10;;
65597;SDS011;52267;51.984;20.956;2023-09-08T12:09:24;7.10;;;4.80;;
65597;SDS011;52267;51.984;20.956;2023-09-08T12:11:52;6.90;;;4.80;;
65597;SDS011;52267;51.984;20.956;2023-09-08T12:14:19;9.20;;;5.80;;
65597;SDS011;52267;51.984;20.956;2023-09-08T12:16:46;6.30;;;4.30;;
65597;SDS011;52267;51.984;20.956;2023-09-08T12:19:29;6.40;;;4.70;;
65597;SDS011;52267;51.984;20.956;2023-09-08T12:22:01;6.20;;;4.30;;
65597;SDS011;52267;51.984;20.956;2023-09-08T12:24:49;5.60;;;4.50;;
65597;SDS011;52267;51.984;20.956;2023-09-08T12:27:18;6.50;;;5.20;;
65597;SDS011;52267;51.984;20.956;2023-09-08T12:29:59;7.50;;;4.80;;
65597;SDS011;52267;51.984;20.956;2023-09-08T12:32:31;5.90;;;5.00;;
65597;SDS011;52267;51.984;20.956;2023-09-08T12:35:01;6.50;;;4.80;;
65597;SDS011;52267;51.984;20.956;2023-09-08T12:37:32;7.30;;;5.50;;
65597;SDS011;52267;51.984;20.956;2023-09-08T12:40:00;6.50;;;4.50;;
65597;SDS011;52267;51.984;20.956;2023-09-08T12:42:28;6.40;;;4.40;;
65597;SDS011;52267;51.984;20.956;2023-09-08T12:44:56;7.00;;;4.90;;
65597;SDS011;52267;51.984;20.956;2023-09-08T12:47:24;8.60;;;5.50;;
65597;SDS011;52267;51.984;20.956;2023-09-08T12:49:51;6.10;;;4.30;;
65597;SDS011;52267;51.984;20.956;2023-09-08T12:52:18;5.90;;;5.00;;
65597;SDS011;52267;51.984;20.956;2023-09-08T12:54:45;7.20;;;4.90;;
65597;SDS011;52267;51.984;20.956;2023-09-08T12:57:13;7.30;;;5.10;;
65597;SDS011;52267;51.984;20.956;2023-09-08T12:59:40;6.00;;;4.80;;
65597;SDS011;52267;51.984;20.956;2023-09-08T13:02:07;7.50;;;5.00;;
65597;SDS011;52267;51.984;20.956;2023-09-08T13:04:34;5.90;;;4.60;;
65597;SDS011;52267;51.984;20.956;2023-09-08T13:07:02;7.00;;;4.80;;
65597;SDS011;52267;51.984;20.956;2023-09-08T13:09:29;7.00;;;4.60;;
65597;SDS011;52267;51.984;20.956;2023-09-08T13:11:56;6.10;;;4.70;;
65597;SDS011;52267;51.984;20.956;2023-09-08T13:14:23;6.40;;;4.80;;
65597;SDS011;52267;51.984;20.956;2023-09-08T13:16:51;8.30;;;5.70;;
65597;SDS011;52267;51.984;20.956;2023-09-08T13:19:19;6.30;;;4.50;;
65597;SDS011;52267;51.984;20.956;2023-09-08T13:21:46;25.70;;;6.10;;
65597;SDS011;52267;51.984;20.956;2023-09-08T13:24:13;27.60;;;6.70;;
65597;SDS011;52267;51.984;20.956;2023-09-08T13:26:42;51.50;;;8.90;;
65597;SDS011;52267;51.984;20.956;2023-09-08T13:29:10;40.50;;;7.80;;
65597;SDS011;52267;51.984;20.956;2023-09-08T13:31:39;19.40;;;6.10;;
65597;SDS011;52267;51.984;20.956;2023-09-08T13:34:07;5.90;;;4.60;;
65597;SDS011;52267;51.984;20.956;2023-09-08T13:36:34;11.90;;;8.80;;
65597;SDS011;52267;51.984;20.956;2023-09-08T13:39:01;8.90;;;5.90;;
65597;SDS011;52267;51.984;20.956;2023-09-08T13:41:50;6.60;;;5.20;;
65597;SDS011;52267;51.984;20.956;2023-09-08T13:44:19;8.70;;;5.60;;
65597;SDS011;52267;51.984;20.956;2023-09-08T13:46:48;5.80;;;5.00;;
65597;SDS011;52267;51.984;20.956;2023-09-08T13:49:17;6.50;;;4.90;;
65597;SDS011;52267;51.984;20.956;2023-09-08T13:51:45;9.20;;;5.30;;
65597;SDS011;52267;51.984;20.956;2023-09-08T13:54:13;8.10;;;5.30;;
65597;SDS011;52267;51.984;20.956;2023-09-08T13:56:41;8.20;;;5.00;;
65597;SDS011;52267;51.984;20.956;2023-09-08T13:59:09;6.20;;;5.00;;
65597;SDS011;52267;51.984;20.956;2023-09-08T14:01:37;5.80;;;4.90;;
65597;SDS011;52267;51.984;20.956;2023-09-08T14:04:04;5.60;;;4.80;;
65597;SDS011;52267;51.984;20.956;2023-09-08T14:06:35;6.30;;;4.50;;
65597;SDS011;52267;51.984;20.956;2023-09-08T14:09:02;6.00;;;4.90;;
65597;SDS011;52267;51.984;20.956;2023-09-08T14:11:31;6.90;;;5.00;;
65597;SDS011;52267;51.984;20.956;2023-09-08T14:13:58;6.20;;;5.10;;
65597;SDS011;52267;51.984;20.956;2023-09-08T14:16:26;7.90;;;5.50;;
65597;SDS011;52267;51.984;20.956;2023-09-08T14:18:53;6.20;;;4.90;;
65597;SDS011;52267;51.984;20.956;2023-09-08T14:21:21;8.50;;;4.80;;
65597;SDS011;52267;51.984;20.956;2023-09-08T14:23:49;6.60;;;4.90;;
65597;SDS011;52267;51.984;20.956;2023-09-08T14:26:16;7.80;;;5.10;;
65597;SDS011;52267;51.984;20.956;2023-09-08T14:28:44;6.70;;;5.20;;
65597;SDS011;52267;51.984;20.956;2023-09-08T14:31:11;7.60;;;5.70;;
65597;SDS011;52267;51.984;20.956;2023-09-08T14:33:39;6.50;;;4.70;;
65597;SDS011;52267;51.984;20.956;2023-09-08T14:36:07;7.50;;;5.30;;
65597;SDS011;52267;51.984;20.956;2023-09-08T14:38:35;9.40;;;5.60;;
65597;SDS011;52267;51.984;20.956;2023-09-08T14:41:02;11.10;;;5.60;;